Time;durP1;ratioP1;P1;durP2;ratioP2;P2;SDS_P1;SDS_P2;PMS_P1;PMS_P2;Temp;Humidity;BMP_temperature;BMP_pressure;BME280_temperature;BME280_humidity;BME280_pressure;Samples;Min_cycle;Max_cycle;Signal;HPM_P1;HPM_P2
2023/03/18 00:02:22;;;;;;;4.90;2.00;;;10.80;45.50;;;;;;5035487;28;20030;-73
2023/03/18 00:04:48;;;;;;;4.03;0.90;;;10.90;46.10;;;;;;5035421;28;20033;-74
2023/03/18 00:07:14;;;;;;;5.90;1.63;;;11.10;41.40;;;;;;5035484;28;20030;-74
2023/03/18 00:09:40;;;;;;;3.47;1.60;;;11.30;42.80;;;;;;5035219;28;20032;-74
2023/03/18 00:12:07;;;;;;;3.83;1.05;;;11.40;41.80;;;;;;5035342;28;20018;-73
2023/03/18 00:14:34;;;;;;;4.28;1.08;;;11.50;40.40;;;;;;5035102;28;20018;-73
2023/03/18 00:17:00;;;;;;;1.02;0.70;;;11.80;38.90;;;;;;5035312;28;20111;-74
2023/03/18 00:19:26;;;;;;;2.08;1.05;;;11.90;39.10;;;;;;5035313;28;20431;-74
2023/03/18 00:21:51;;;;;;;2.63;0.93;;;11.90;39.80;;;;;;5035265;28;20087;-74
2023/03/18 00:24:17;;;;;;;5.28;1.10;;;12.00;38.60;;;;;;5035063;28;20505;-73
2023/03/18 00:26:42;;;;;;;1.42;0.90;;;12.10;38.60;;;;;;5034782;28;20059;-73
2023/03/18 00:29:09;;;;;;;2.58;1.00;;;12.20;38.70;;;;;;5035062;28;20036;-73
2023/03/18 00:31:35;;;;;;;1.67;1.00;;;12.20;38.90;;;;;;5035102;28;20080;-73
2023/03/18 00:34:01;;;;;;;2.05;0.90;;;12.20;38.00;;;;;;5035073;28;20026;-73
2023/03/18 00:36:27;;;;;;;4.88;1.00;;;12.30;38.20;;;;;;5034781;28;20026;-73
2023/03/18 00:38:57;;;;;;;2.65;0.98;;;12.30;38.30;;;;;;5034797;28;20049;-73
2023/03/18 00:41:26;;;;;;;6.72;0.98;;;12.30;38.10;;;;;;5035024;28;20025;-73
2023/03/18 00:43:53;;;;;;;4.20;1.02;;;12.40;38.10;;;;;;5034756;28;20072;-73
2023/03/18 00:46:27;;;;;;;1.85;0.98;;;12.40;38.10;;;;;;5035118;28;20100;-74
2023/03/18 00:48:54;;;;;;;1.08;0.80;;;12.40;38.20;;;;;;5034823;28;20052;-75
2023/03/18 00:51:21;;;;;;;2.30;0.65;;;12.40;38.40;;;;;;5034738;28;20648;-75
2023/03/18 00:53:50;;;;;;;2.65;1.00;;;12.50;38.40;;;;;;5033212;28;20117;-74
2023/03/18 00:56:18;;;;;;;2.45;0.98;;;12.40;38.50;;;;;;5034572;28;20026;-73
2023/03/18 00:58:45;;;;;;;1.42;0.80;;;12.40;38.70;;;;;;5034373;28;20048;-75
2023/03/18 01:01:12;;;;;;;3.47;1.10;;;12.40;38.70;;;;;;5034303;28;20049;-75
2023/03/18 01:03:41;;;;;;;4.43;1.17;;;12.30;39.00;;;;;;5034102;28;20083;-74
2023/03/18 01:06:07;;;;;;;1.85;1.00;;;12.40;38.50;;;;;;5034155;28;20021;-73
2023/03/18 01:08:32;;;;;;;2.13;0.77;;;12.40;39.10;;;;;;5034150;28;20033;-74
2023/03/18 01:10:58;;;;;;;3.67;1.08;;;12.30;39.00;;;;;;5034471;28;20092;-74
2023/03/18 01:13:24;;;;;;;1.02;0.80;;;12.30;39.50;;;;;;5033994;28;20033;-76
2023/03/18 01:15:51;;;;;;;2.38;1.02;;;12.30;39.40;;;;;;5034138;28;20136;-76
2023/03/18 01:18:16;;;;;;;3.13;0.95;;;12.20;39.90;;;;;;5034064;28;20478;-77
2023/03/18 01:20:43;;;;;;;4.95;1.10;;;12.20;40.10;;;;;;5034193;28;20033;-76
2023/03/18 01:23:09;;;;;;;2.42;1.10;;;12.20;40.30;;;;;;5033995;28;20042;-76
2023/03/18 01:25:36;;;;;;;4.15;1.00;;;12.10;40.60;;;;;;5034028;28;20025;-75
2023/03/18 01:28:02;;;;;;;2.30;1.10;;;12.20;39.60;;;;;;5034084;28;20482;-76
2023/03/18 01:30:29;;;;;;;2.50;1.00;;;12.20;39.20;;;;;;5033844;28;20425;-75
2023/03/18 01:32:55;;;;;;;5.22;1.10;;;12.20;39.00;;;;;;5033901;28;20013;-73
2023/03/18 01:35:20;;;;;;;4.25;1.13;;;12.20;39.30;;;;;;5033967;28;20091;-73
2023/03/18 01:37:47;;;;;;;3.05;1.10;;;12.20;39.30;;;;;;5033233;28;20034;-75
2023/03/18 01:40:15;;;;;;;2.50;0.98;;;12.20;39.00;;;;;;5033834;28;20025;-74
2023/03/18 01:42:41;;;;;;;3.05;0.93;;;12.10;39.40;;;;;;5033640;28;20505;-74
2023/03/18 01:45:18;;;;;;;2.20;0.90;;;12.10;39.30;;;;;;5032611;28;20030;-74
2023/03/18 01:47:45;;;;;;;2.33;0.98;;;12.20;39.40;;;;;;5033716;28;20027;-73
2023/03/18 01:50:13;;;;;;;6.07;1.20;;;12.20;39.40;;;;;;5032295;28;20498;-74
2023/03/18 01:52:40;;;;;;;2.30;0.88;;;12.20;39.40;;;;;;5033635;28;20044;-73
2023/03/18 01:55:11;;;;;;;5.97;1.23;;;12.20;39.30;;;;;;5033583;28;20382;-73
2023/03/18 01:57:37;;;;;;;8.05;1.38;;;12.20;39.40;;;;;;5033602;28;20078;-75
2023/03/18 02:00:05;;;;;;;2.78;0.85;;;12.20;39.60;;;;;;5033441;28;20045;-73
2023/03/18 02:02:32;;;;;;;4.10;0.85;;;12.10;39.90;;;;;;5031916;28;20116;-73
2023/03/18 02:05:02;;;;;;;4.30;1.10;;;12.10;39.80;;;;;;5033347;28;20029;-73
2023/03/18 02:07:31;;;;;;;2.42;0.90;;;12.10;39.70;;;;;;5033312;28;20021;-73
2023/03/18 02:09:59;;;;;;;4.00;0.95;;;12.00;40.10;;;;;;5033201;28;20053;-73
2023/03/18 02:12:29;;;;;;;2.85;1.10;;;12.10;40.10;;;;;;5033282;28;20022;-74
2023/03/18 02:14:55;;;;;;;3.63;0.95;;;12.10;40.10;;;;;;5033225;28;20025;-75
2023/03/18 02:17:28;;;;;;;7.32;1.20;;;12.00;39.80;;;;;;5033212;28;20029;-74
2023/03/18 02:19:58;;;;;;;5.03;1.52;;;12.00;39.70;;;;;;5033213;28;20121;-77
2023/03/18 02:22:49;;;;;;;4.40;1.35;;;12.10;39.60;;;;;;5033126;28;20032;-76
2023/03/18 02:25:18;;;;;;;3.38;1.23;;;12.00;39.40;;;;;;5032960;28;20033;-73
2023/03/18 02:27:46;;;;;;;2.15;0.88;;;12.10;39.40;;;;;;5032927;28;20029;-76
2023/03/18 02:30:17;;;;;;;4.38;1.25;;;12.00;39.50;;;;;;5032932;28;20386;-76
2023/03/18 02:32:45;;;;;;;2.33;1.20;;;12.00;39.60;;;;;;5032933;28;20056;-76
2023/03/18 02:35:11;;;;;;;3.05;1.10;;;12.00;39.70;;;;;;5033026;28;20479;-75
2023/03/18 02:37:37;;;;;;;2.53;1.10;;;12.00;39.40;;;;;;5032882;28;20042;-76
2023/03/18 02:40:26;;;;;;;1.23;0.73;;;12.00;39.10;;;;;;5031846;28;20393;-77
2023/03/18 02:42:52;;;;;;;4.72;1.05;;;12.00;39.10;;;;;;5031712;28;20104;-74
2023/03/18 02:45:39;;;;;;;4.22;1.20;;;12.00;38.80;;;;;;5032890;28;20045;-77
2023/03/18 02:48:10;;;;;;;3.25;0.80;;;12.00;39.20;;;;;;5032785;28;20025;-76
2023/03/18 02:50:35;;;;;;;4.57;1.10;;;12.00;38.70;;;;;;5034035;28;20033;-77
2023/03/18 02:53:03;;;;;;;2.08;0.88;;;12.10;38.40;;;;;;5036736;28;20028;-77
2023/03/18 02:55:29;;;;;;;3.35;0.98;;;12.00;38.50;;;;;;5036878;28;20541;-76
2023/03/18 02:57:55;;;;;;;2.80;1.00;;;12.10;37.80;;;;;;5036928;28;20072;-76
2023/03/18 03:00:20;;;;;;;2.55;0.90;;;12.20;37.60;;;;;;5037116;28;20022;-77
2023/03/18 03:02:46;;;;;;;8.05;1.02;;;12.20;37.40;;;;;;5036706;28;20037;-76
2023/03/18 03:05:12;;;;;;;7.65;1.33;;;12.20;37.50;;;;;;5036552;28;20036;-76
2023/03/18 03:07:37;;;;;;;2.03;0.70;;;12.20;37.40;;;;;;5036668;28;20040;-75
2023/03/18 03:10:05;;;;;;;5.57;1.17;;;12.20;37.40;;;;;;5035391;28;20021;-73
2023/03/18 03:12:31;;;;;;;3.15;1.08;;;12.10;37.50;;;;;;5036551;28;20028;-73
2023/03/18 03:14:56;;;;;;;4.63;0.93;;;12.10;37.70;;;;;;5036506;28;20025;-74
2023/03/18 03:17:23;;;;;;;2.35;0.95;;;12.10;37.60;;;;;;5036284;28;20026;-72
2023/03/18 03:19:48;;;;;;;2.88;1.20;;;12.10;38.00;;;;;;5036325;28;20033;-73
2023/03/18 03:22:16;;;;;;;4.05;1.23;;;12.10;37.80;;;;;;5036400;28;20033;-73
2023/03/18 03:24:42;;;;;;;2.40;1.20;;;12.10;38.50;;;;;;5036281;28;20055;-73
2023/03/18 03:27:08;;;;;;;2.95;0.90;;;12.10;37.80;;;;;;5036389;28;20018;-73
2023/03/18 03:29:34;;;;;;;3.70;1.17;;;12.10;38.30;;;;;;5036201;28;20041;-73
2023/03/18 03:32:00;;;;;;;5.13;0.80;;;12.00;38.20;;;;;;5036199;28;20021;-73
2023/03/18 03:34:26;;;;;;;6.22;1.15;;;11.90;38.30;;;;;;5036123;28;20441;-73
2023/03/18 03:36:52;;;;;;;3.85;1.00;;;11.90;38.30;;;;;;5036175;28;20065;-73
2023/03/18 03:39:18;;;;;;;1.70;0.95;;;12.00;38.20;;;;;;5035864;28;20490;-73
2023/03/18 03:41:43;;;;;;;2.10;0.77;;;12.00;38.30;;;;;;5035951;28;20040;-73
2023/03/18 03:44:09;;;;;;;1.48;0.90;;;12.00;39.20;;;;;;5034545;28;20033;-72
2023/03/18 03:46:34;;;;;;;2.67;1.08;;;11.80;42.40;;;;;;5035720;28;20029;-73
2023/03/18 03:49:00;;;;;;;4.05;1.05;;;11.60;43.20;;;;;;5035823;28;20029;-73
2023/03/18 03:51:26;;;;;;;3.10;1.00;;;11.50;43.70;;;;;;5035736;28;20029;-73
2023/03/18 03:53:52;;;;;;;3.63;0.90;;;11.30;44.30;;;;;;5035649;28;20049;-73
2023/03/18 03:56:18;;;;;;;2.58;1.08;;;11.20;45.00;;;;;;5035757;28;20091;-73
2023/03/18 03:58:44;;;;;;;3.22;1.00;;;11.10;45.50;;;;;;5035697;28;20056;-73
2023/03/18 04:01:10;;;;;;;1.95;0.88;;;11.00;45.70;;;;;;5035018;28;20025;-73
2023/03/18 04:03:36;;;;;;;1.10;0.80;;;10.90;46.60;;;;;;5035573;28;20059;-74
2023/03/18 04:06:01;;;;;;;3.25;0.98;;;10.80;47.60;;;;;;5035524;28;20513;-73
2023/03/18 04:08:27;;;;;;;1.90;1.00;;;10.60;48.00;;;;;;5035455;28;20017;-74
2023/03/18 04:10:52;;;;;;;3.35;1.15;;;10.60;48.10;;;;;;5035416;28;20025;-72
2023/03/18 04:13:18;;;;;;;2.13;1.00;;;10.40;48.50;;;;;;5035543;28;20108;-73
2023/03/18 04:15:46;;;;;;;3.22;1.58;;;10.50;48.70;;;;;;5035335;28;20052;-73
2023/03/18 04:18:13;;;;;;;3.45;0.90;;;10.40;48.90;;;;;;5035369;28;20028;-74
2023/03/18 04:20:39;;;;;;;3.92;1.20;;;10.40;49.00;;;;;;5035279;28;20025;-74
2023/03/18 04:23:06;;;;;;;2.80;1.05;;;10.30;49.60;;;;;;5035229;28;20034;-77
2023/03/18 04:25:32;;;;;;;2.75;1.50;;;10.20;49.60;;;;;;5035236;28;20108;-73
2023/03/18 04:27:58;;;;;;;5.18;1.52;;;10.20;49.60;;;;;;5035186;28;20557;-73
2023/03/18 04:30:25;;;;;;;6.50;1.38;;;10.00;49.90;;;;;;5035027;28;20041;-74
2023/03/18 04:32:51;;;;;;;2.13;1.20;;;9.90;50.60;;;;;;5035037;28;20029;-74
2023/03/18 04:35:18;;;;;;;4.75;2.83;;;9.90;49.30;;;;;;5035242;28;20033;-73
2023/03/18 04:37:44;;;;;;;4.65;3.20;;;9.90;49.40;;;;;;5034742;28;20095;-73
2023/03/18 04:40:10;;;;;;;7.50;3.63;;;9.90;49.20;;;;;;5034834;28;20033;-73
2023/03/18 04:42:37;;;;;;;8.52;3.97;;;10.00;49.00;;;;;;5034656;28;20014;-73
2023/03/18 04:45:04;;;;;;;6.93;3.05;;;10.00;49.70;;;;;;5034710;28;20104;-73
2023/03/18 04:47:31;;;;;;;7.43;3.08;;;9.90;50.00;;;;;;5034691;28;20024;-73
2023/03/18 04:49:57;;;;;;;5.28;1.95;;;9.80;50.30;;;;;;5034670;28;20109;-73
2023/03/18 04:52:23;;;;;;;4.90;2.17;;;9.70;50.80;;;;;;5034169;28;20057;-73
2023/03/18 04:54:49;;;;;;;4.13;1.65;;;9.60;51.30;;;;;;5034378;28;20442;-71
2023/03/18 04:57:15;;;;;;;3.30;1.20;;;9.50;51.00;;;;;;5034597;28;20067;-71
2023/03/18 04:59:41;;;;;;;3.00;1.60;;;9.50;50.90;;;;;;5034370;28;20018;-71
2023/03/18 05:02:07;;;;;;;4.38;1.40;;;9.40;51.10;;;;;;5034537;28;20064;-72
2023/03/18 05:04:33;;;;;;;5.82;3.58;;;9.40;51.10;;;;;;5034264;28;20030;-72
2023/03/18 05:06:59;;;;;;;6.15;1.70;;;9.40;51.10;;;;;;5034445;28;20079;-72
2023/03/18 05:09:24;;;;;;;3.67;1.45;;;9.30;51.40;;;;;;5034315;28;20029;-72
2023/03/18 05:11:50;;;;;;;3.22;1.38;;;9.30;51.80;;;;;;5034197;28;20020;-72
2023/03/18 05:14:15;;;;;;;4.82;1.77;;;9.30;51.90;;;;;;5033183;28;20104;-74
2023/03/18 05:16:42;;;;;;;4.35;2.03;;;9.30;52.00;;;;;;5034245;28;20418;-73
2023/03/18 05:19:08;;;;;;;9.55;3.80;;;9.20;51.40;;;;;;5034238;28;20550;-72
2023/03/18 05:21:34;;;;;;;6.57;2.45;;;9.10;51.60;;;;;;5034349;28;20072;-75
2023/03/18 05:24:00;;;;;;;5.22;2.10;;;9.00;51.90;;;;;;5034298;28;20444;-75
2023/03/18 05:26:26;;;;;;;5.95;2.03;;;9.00;52.40;;;;;;5034084;28;20104;-73
2023/03/18 05:28:52;;;;;;;5.97;2.40;;;8.90;52.70;;;;;;5034067;28;20029;-72
2023/03/18 05:31:18;;;;;;;9.20;2.70;;;8.80;53.00;;;;;;5033780;28;20056;-73
2023/03/18 05:33:45;;;;;;;6.70;1.95;;;8.70;53.00;;;;;;5033990;28;20044;-73
2023/03/18 05:36:11;;;;;;;8.95;2.10;;;8.70;52.60;;;;;;5033818;28;20022;-72
2023/03/18 05:38:36;;;;;;;4.05;1.80;;;8.70;53.10;;;;;;5033731;28;20045;-73
2023/03/18 05:41:02;;;;;;;2.70;1.50;;;8.70;53.30;;;;;;5032549;28;20374;-73
2023/03/18 05:43:28;;;;;;;4.40;1.50;;;8.70;54.10;;;;;;5033605;28;20079;-72
2023/03/18 05:45:54;;;;;;;4.47;1.80;;;8.70;53.20;;;;;;5033632;28;20031;-73
2023/03/18 05:48:20;;;;;;;3.38;1.45;;;8.70;53.30;;;;;;5033704;28;20045;-72
2023/03/18 05:50:46;;;;;;;3.55;1.50;;;8.70;53.00;;;;;;5033634;28;20021;-71
2023/03/18 05:53:15;;;;;;;4.15;1.95;;;8.70;53.20;;;;;;5033375;28;20056;-72
2023/03/18 05:55:41;;;;;;;5.80;1.88;;;8.60;52.90;;;;;;5033519;28;20467;-72
2023/03/18 05:58:06;;;;;;;3.88;1.88;;;8.70;53.00;;;;;;5033401;28;20033;-73
2023/03/18 06:00:32;;;;;;;3.38;1.70;;;8.70;52.90;;;;;;5033487;28;20028;-72
2023/03/18 06:02:58;;;;;;;5.82;1.30;;;8.70;52.60;;;;;;5033305;28;20363;-73
2023/03/18 06:05:25;;;;;;;3.15;1.52;;;8.70;52.50;;;;;;5033344;28;20041;-72
2023/03/18 06:07:51;;;;;;;4.82;1.65;;;8.70;52.50;;;;;;5033393;28;20030;-74
2023/03/18 06:10:17;;;;;;;3.95;1.83;;;8.60;52.50;;;;;;5032924;28;20463;-72
2023/03/18 06:12:43;;;;;;;2.75;1.60;;;8.70;52.60;;;;;;5032819;28;20035;-74
2023/03/18 06:15:11;;;;;;;4.63;1.77;;;8.60;52.60;;;;;;5033344;28;20050;-72
2023/03/18 06:17:37;;;;;;;3.53;1.65;;;8.60;52.60;;;;;;5033094;28;20022;-73
2023/03/18 06:20:04;;;;;;;4.90;1.92;;;8.60;52.50;;;;;;5033126;28;20104;-72
2023/03/18 06:22:31;;;;;;;5.15;2.25;;;8.60;52.60;;;;;;5031818;28;20064;-72
2023/03/18 06:24:57;;;;;;;3.53;2.35;;;8.60;52.80;;;;;;5032788;28;20022;-72
2023/03/18 06:27:23;;;;;;;4.78;2.20;;;8.50;53.10;;;;;;5032870;28;20018;-72
2023/03/18 06:29:49;;;;;;;7.60;2.67;;;8.50;52.90;;;;;;5032868;28;20467;-72
2023/03/18 06:32:15;;;;;;;8.40;2.33;;;8.50;52.70;;;;;;5032993;28;20524;-73
2023/03/18 06:34:41;;;;;;;6.70;2.33;;;8.60;52.50;;;;;;5032773;28;20029;-72
2023/03/18 06:37:08;;;;;;;6.07;1.83;;;8.70;52.40;;;;;;5032787;28;20029;-74
2023/03/18 06:39:34;;;;;;;7.97;1.95;;;8.80;51.90;;;;;;5032731;28;20052;-72
2023/03/18 06:42:00;;;;;;;5.68;2.22;;;8.90;51.00;;;;;;5032925;28;20064;-72
2023/03/18 06:44:26;;;;;;;4.93;1.98;;;9.00;50.80;;;;;;5032579;28;20065;-72
2023/03/18 06:46:52;;;;;;;4.80;1.88;;;9.00;51.00;;;;;;5032570;28;20097;-72
2023/03/18 06:49:18;;;;;;;4.38;1.70;;;8.90;51.00;;;;;;5032464;28;20037;-72
2023/03/18 06:51:44;;;;;;;2.97;1.85;;;8.90;51.40;;;;;;5032448;28;20029;-73
2023/03/18 06:54:09;;;;;;;3.00;1.45;;;9.00;51.20;;;;;;5032376;28;20540;-72
2023/03/18 06:56:37;;;;;;;6.38;2.20;;;9.10;51.00;;;;;;5032502;28;20128;-73
2023/03/18 06:59:04;;;;;;;5.35;1.55;;;9.30;50.70;;;;;;5032379;28;20026;-72
2023/03/18 07:01:31;;;;;;;4.13;1.30;;;9.40;50.30;;;;;;5032256;28;20098;-73
2023/03/18 07:03:57;;;;;;;3.08;1.50;;;9.40;51.10;;;;;;5032463;28;20029;-73
2023/03/18 07:06:23;;;;;;;5.30;1.70;;;9.40;50.20;;;;;;5032361;28;20024;-72
2023/03/18 07:08:49;;;;;;;6.80;1.77;;;9.50;50.10;;;;;;5032467;28;20025;-73
2023/03/18 07:11:15;;;;;;;4.32;1.90;;;9.50;50.20;;;;;;5032510;28;20018;-72
2023/03/18 07:13:41;;;;;;;5.03;1.75;;;9.70;50.00;;;;;;5032318;28;20462;-73
2023/03/18 07:16:06;;;;;;;4.00;1.85;;;9.80;49.90;;;;;;5032451;28;20037;-72
2023/03/18 07:18:32;;;;;;;5.63;1.88;;;9.90;49.60;;;;;;5032101;28;20104;-72
2023/03/18 07:20:58;;;;;;;3.65;1.75;;;10.00;49.20;;;;;;5032440;28;20470;-72
2023/03/18 07:23:24;;;;;;;4.43;1.67;;;10.10;48.90;;;;;;5032225;28;20162;-72
2023/03/18 07:25:50;;;;;;;7.82;2.25;;;10.20;48.70;;;;;;5032238;28;20048;-73
2023/03/18 07:28:16;;;;;;;4.80;2.20;;;10.40;48.50;;;;;;5032178;28;20018;-72
2023/03/18 07:30:41;;;;;;;4.70;2.00;;;10.50;48.10;;;;;;5032178;28;20033;-72
2023/03/18 07:33:07;;;;;;;2.45;1.50;;;10.70;47.80;;;;;;5032002;28;20458;-73
2023/03/18 07:35:33;;;;;;;4.75;1.90;;;10.80;47.50;;;;;;5032173;28;20059;-73
2023/03/18 07:37:59;;;;;;;5.63;1.90;;;11.00;47.40;;;;;;5035129;28;20124;-72
2023/03/18 07:40:25;;;;;;;5.00;2.25;;;11.10;47.60;;;;;;5035673;28;20475;-73
2023/03/18 07:42:50;;;;;;;5.90;1.90;;;11.30;47.40;;;;;;5035645;28;20390;-73
2023/03/18 07:45:16;;;;;;;5.07;1.83;;;11.40;47.20;;;;;;5036003;28;20060;-73
2023/03/18 07:47:42;;;;;;;5.93;1.58;;;11.50;46.30;;;;;;5035484;28;20100;-73
2023/03/18 07:50:09;;;;;;;3.47;1.85;;;11.60;46.00;;;;;;5035579;28;20025;-73
2023/03/18 07:52:36;;;;;;;3.25;1.40;;;11.80;45.70;;;;;;5035587;28;20443;-74
2023/03/18 07:55:03;;;;;;;4.80;1.67;;;11.90;45.30;;;;;;5035438;28;20032;-74
2023/03/18 07:57:28;;;;;;;3.40;1.58;;;12.00;44.60;;;;;;5035554;28;20025;-73
2023/03/18 07:59:55;;;;;;;3.45;1.20;;;12.10;44.70;;;;;;5034804;28;20119;-73
2023/03/18 08:02:20;;;;;;;13.35;2.20;;;12.20;45.20;;;;;;5034893;28;20072;-72
2023/03/18 08:04:46;;;;;;;4.68;1.77;;;12.30;43.50;;;;;;5035038;28;20041;-73
2023/03/18 08:07:12;;;;;;;6.05;2.08;;;12.30;43.00;;;;;;5034739;28;20021;-72
2023/03/18 08:09:38;;;;;;;8.07;2.10;;;12.40;43.00;;;;;;5035045;28;20022;-73
2023/03/18 08:12:03;;;;;;;4.53;2.20;;;12.40;43.50;;;;;;5035185;28;20419;-73
2023/03/18 08:14:30;;;;;;;2.72;1.63;;;12.60;43.50;;;;;;5034914;28;20033;-73
2023/03/18 08:16:56;;;;;;;2.67;1.42;;;12.70;44.30;;;;;;5032884;28;20029;-74
2023/03/18 08:19:21;;;;;;;2.78;1.40;;;12.90;43.10;;;;;;5031769;28;20026;-74
2023/03/18 08:21:47;;;;;;;4.78;1.70;;;13.10;42.10;;;;;;5032267;28;20040;-73
2023/03/18 08:24:13;;;;;;;7.07;1.98;;;13.10;41.10;;;;;;5040710;28;20082;-75
2023/03/18 08:26:39;;;;;;;2.72;1.38;;;13.30;41.80;;;;;;5033316;28;20104;-75
2023/03/18 08:29:05;;;;;;;3.95;1.45;;;13.50;36.20;;;;;;5033631;28;20486;-74
2023/03/18 08:31:32;;;;;;;3.53;1.20;;;13.60;36.60;;;;;;5033441;28;20026;-77
2023/03/18 08:33:59;;;;;;;4.38;1.48;;;13.70;36.00;;;;;;5016577;28;20030;-77
2023/03/18 08:36:26;;;;;;;3.25;1.17;;;13.90;38.00;;;;;;5032883;28;20117;-76
2023/03/18 08:38:53;;;;;;;2.80;1.13;;;13.90;33.40;;;;;;5034173;28;20046;-77
2023/03/18 08:41:19;;;;;;;9.13;2.65;;;14.00;32.50;;;;;;5033321;28;20064;-76
2023/03/18 08:43:45;;;;;;;4.38;1.05;;;14.20;46.10;;;;;;5032912;28;20037;-76
2023/03/18 08:46:11;;;;;;;2.10;0.70;;;14.40;31.80;;;;;;5033131;28;20025;-76
2023/03/18 08:48:37;;;;;;;4.13;0.57;;;14.50;30.40;;;;;;5029518;28;20033;-74
2023/03/18 08:51:03;;;;;;;4.20;0.75;;;14.40;30.00;;;;;;5021908;28;20048;-73
2023/03/18 08:53:31;;;;;;;1.90;0.77;;;14.50;29.10;;;;;;5034208;28;20087;-77
2023/03/18 08:55:56;;;;;;;3.97;0.93;;;14.60;28.60;;;;;;5033011;28;20030;-73
2023/03/18 08:58:22;;;;;;;3.72;0.90;;;14.60;28.60;;;;;;5032825;28;20084;-72
2023/03/18 09:00:49;;;;;;;2.30;0.82;;;14.70;28.80;;;;;;5034077;28;20143;-72
2023/03/18 09:03:15;;;;;;;4.72;1.17;;;14.80;28.90;;;;;;5033754;28;20106;-72
2023/03/18 09:05:40;;;;;;;8.20;1.23;;;14.70;29.40;;;;;;5033709;28;20022;-76
2023/03/18 09:08:06;;;;;;;2.30;1.00;;;14.90;29.60;;;;;;5033752;28;20374;-74
2023/03/18 09:10:32;;;;;;;4.50;0.85;;;15.10;29.20;;;;;;5034087;28;20037;-72
2023/03/18 09:12:59;;;;;;;2.17;0.82;;;15.00;30.60;;;;;;5033913;28;20025;-72
2023/03/18 09:15:26;;;;;;;2.67;1.10;;;15.30;30.20;;;;;;5033814;28;20025;-71
2023/03/18 09:17:52;;;;;;;5.07;2.28;;;15.50;29.90;;;;;;5033946;28;20067;-73
2023/03/18 09:20:18;;;;;;;4.32;2.45;;;15.70;29.20;;;;;;5033493;28;20051;-73
2023/03/18 09:22:45;;;;;;;1.48;0.90;;;15.90;28.60;;;;;;5033522;28;20022;-73
2023/03/18 09:25:11;;;;;;;1.90;0.80;;;16.10;28.20;;;;;;5033501;28;20037;-73
2023/03/18 09:27:36;;;;;;;3.88;0.85;;;16.30;27.90;;;;;;5031989;28;20018;-72
2023/03/18 09:30:03;;;;;;;5.10;1.98;;;16.50;28.20;;;;;;5031989;28;20037;-72
2023/03/18 09:32:29;;;;;;;8.13;1.40;;;16.60;26.10;;;;;;5033371;28;20028;-73
2023/03/18 09:34:55;;;;;;;2.80;0.80;;;16.60;27.30;;;;;;5033453;28;20025;-71
2023/03/18 09:37:21;;;;;;;3.50;1.17;;;16.60;26.00;;;;;;5031672;28;20079;-72
2023/03/18 09:39:47;;;;;;;2.70;1.27;;;16.60;25.80;;;;;;5033409;28;20025;-74
2023/03/18 09:42:44;;;;;;;4.97;1.25;;;16.60;26.60;;;;;;5031960;28;20036;-72
2023/03/18 09:45:24;;;;;;;4.90;1.25;;;16.70;25.60;;;;;;5031972;28;20443;-72
2023/03/18 09:48:13;;;;;;;3.75;1.38;;;16.60;26.90;;;;;;5033034;28;20029;-72
2023/03/18 09:51:07;;;;;;;5.55;1.65;;;16.80;28.20;;;;;;5033005;28;20497;-73
2023/03/18 09:53:54;;;;;;;3.53;1.15;;;17.00;26.00;;;;;;5033099;28;20025;-73
2023/03/18 09:56:27;;;;;;;2.92;1.00;;;17.10;25.60;;;;;;5032845;28;20025;-71
2023/03/18 09:58:56;;;;;;;4.00;1.05;;;17.20;25.00;;;;;;5031090;28;20124;-71
2023/03/18 10:01:25;;;;;;;3.88;1.13;;;17.20;25.20;;;;;;5031792;28;20028;-72
2023/03/18 10:04:14;;;;;;;5.18;1.10;;;17.20;24.20;;;;;;5031466;28;20039;-72
2023/03/18 10:06:43;;;;;;;4.60;1.27;;;17.40;24.90;;;;;;5031639;28;20024;-72
2023/03/18 10:09:27;;;;;;;3.53;1.02;;;17.60;21.80;;;;;;5032326;28;20040;-72
2023/03/18 10:12:00;;;;;;;1.67;0.80;;;17.60;23.00;;;;;;5032523;28;20017;-72
2023/03/18 10:14:25;;;;;;;1.80;0.68;;;17.50;22.80;;;;;;5032790;28;20037;-73
2023/03/18 10:17:12;;;;;;;1.80;0.85;;;17.40;22.70;;;;;;5032639;28;20033;-72
2023/03/18 10:19:52;;;;;;;2.92;1.08;;;17.40;23.20;;;;;;5032738;28;20029;-73
2023/03/18 10:22:43;;;;;;;3.65;0.88;;;17.10;24.80;;;;;;5031526;28;20475;-73
2023/03/18 10:25:08;;;;;;;5.85;1.80;;;17.00;24.60;;;;;;5032397;28;20497;-73
2023/03/18 10:28:26;;;;;;;5.55;1.60;;;17.10;26.00;;;;;;5032030;28;20042;-74
2023/03/18 10:31:03;;;;;;;3.38;1.17;;;17.20;25.50;;;;;;4995704;28;20046;-72
2023/03/18 10:33:40;;;;;;;3.15;1.02;;;17.30;25.70;;;;;;5032043;28;20401;-75
2023/03/18 10:36:08;;;;;;;5.03;1.05;;;17.40;24.80;;;;;;5032260;28;20393;-73
2023/03/18 10:38:39;;;;;;;4.13;1.45;;;17.50;24.50;;;;;;5030315;28;20060;-73
2023/03/18 10:41:27;;;;;;;5.97;2.92;;;17.60;25.10;;;;;;5032287;28;20049;-72
2023/03/18 10:43:55;;;;;;;9.77;2.40;;;17.80;25.10;;;;;;5032653;28;20063;-73
2023/03/18 10:46:23;;;;;;;3.97;1.00;;;18.10;24.90;;;;;;5032045;28;20032;-72
2023/03/18 10:49:19;;;;;;;2.42;0.82;;;18.30;24.00;;;;;;5030311;28;20037;-73
2023/03/18 10:52:04;;;;;;;3.38;0.90;;;18.40;24.00;;;;;;5031635;28;20029;-75
2023/03/18 10:54:41;;;;;;;4.20;1.27;;;18.60;24.00;;;;;;5031622;28;20447;-75
2023/03/18 10:57:14;;;;;;;4.53;1.30;;;18.50;23.90;;;;;;5031458;28;20120;-72
2023/03/18 10:59:43;;;;;;;3.88;1.30;;;18.50;24.00;;;;;;5031493;28;20165;-73
2023/03/18 11:02:34;;;;;;;2.40;1.38;;;18.50;23.50;;;;;;5029526;28;20363;-72
2023/03/18 11:05:21;;;;;;;4.72;2.00;;;18.40;23.40;;;;;;5030533;28;20029;-73
2023/03/18 11:08:04;;;;;;;1.92;1.10;;;18.70;24.20;;;;;;5030011;28;20549;-73
2023/03/18 11:10:45;;;;;;;5.30;1.65;;;18.80;23.00;;;;;;5030051;28;20137;-72
2023/03/18 11:13:19;;;;;;;3.42;1.42;;;18.80;23.90;;;;;;5034903;28;20442;-72
2023/03/18 11:15:50;;;;;;;3.80;1.00;;;19.20;23.00;;;;;;5035343;28;20028;-72
2023/03/18 11:18:20;;;;;;;2.63;1.15;;;19.20;22.20;;;;;;5035209;28;20033;-75
2023/03/18 11:20:59;;;;;;;4.28;1.77;;;19.50;22.40;;;;;;5035250;28;20411;-75
2023/03/18 11:23:55;;;;;;;2.65;1.00;;;19.40;21.70;;;;;;5034996;28;20034;-76
2023/03/18 11:26:28;;;;;;;2.08;1.00;;;19.60;23.20;;;;;;5035074;28;20064;-78
2023/03/18 11:28:57;;;;;;;4.38;1.00;;;20.00;21.90;;;;;;5035175;28;20113;-74
2023/03/18 11:31:22;;;;;;;3.05;1.00;;;20.10;20.70;;;;;;5034834;28;20021;-76
2023/03/18 11:33:48;;;;;;;2.65;1.13;;;20.00;21.10;;;;;;5035156;28;20036;-74
2023/03/18 11:36:21;;;;;;;1.95;0.98;;;20.30;20.80;;;;;;5035523;28;20656;-73
2023/03/18 11:39:05;;;;;;;6.07;1.23;;;20.60;21.80;;;;;;5035572;28;20320;-73
2023/03/18 11:41:30;;;;;;;1.75;0.90;;;20.90;20.20;;;;;;5035678;28;20053;-73
2023/03/18 11:44:00;;;;;;;2.55;0.90;;;21.10;20.50;;;;;;5035247;28;20080;-73
2023/03/18 11:46:37;;;;;;;4.95;1.20;;;21.40;20.00;;;;;;5035694;28;20382;-74
2023/03/18 11:49:02;;;;;;;2.60;1.52;;;21.60;19.50;;;;;;5035712;28;20048;-73
2023/03/18 11:52:01;;;;;;;4.13;1.20;;;21.80;18.80;;;;;;5035579;28;20468;-72
2023/03/18 11:55:02;;;;;;;5.38;3.17;;;21.80;19.30;;;;;;5029796;28;20113;-73
2023/03/18 11:57:56;;;;;;;3.92;1.70;;;21.40;19.90;;;;;;5035361;28;20486;-73
2023/03/18 12:00:49;;;;;;;4.72;1.25;;;21.70;20.00;;;;;;5035390;28;20021;-71
2023/03/18 12:03:47;;;;;;;2.58;0.90;;;21.90;19.10;;;;;;5035331;28;20073;-71
2023/03/18 12:06:27;;;;;;;2.20;1.15;;;22.10;19.00;;;;;;5035498;28;20472;-72
2023/03/18 12:09:16;;;;;;;6.85;1.80;;;22.30;19.00;;;;;;5035218;28;20057;-72
2023/03/18 12:12:19;;;;;;;5.80;1.83;;;22.20;18.40;;;;;;5034903;28;20069;-73
2023/03/18 12:14:55;;;;;;;4.85;1.52;;;22.40;18.50;;;;;;5035293;28;20041;-72
2023/03/18 12:17:45;;;;;;;5.68;1.30;;;22.30;18.40;;;;;;5035104;28;20017;-73
2023/03/18 12:20:11;;;;;;;3.72;1.05;;;22.40;18.20;;;;;;5035139;28;20018;-72
2023/03/18 12:23:14;;;;;;;2.58;1.27;;;22.60;17.20;;;;;;5034676;28;20071;-72
2023/03/18 12:26:05;;;;;;;4.80;1.38;;;22.80;17.70;;;;;;5033792;28;20040;-72
2023/03/18 12:28:36;;;;;;;3.60;1.35;;;23.20;18.50;;;;;;5033658;28;20021;-73
2023/03/18 12:31:27;;;;;;;3.92;1.67;;;23.40;17.40;;;;;;5034686;28;20045;-74
2023/03/18 12:34:01;;;;;;;2.70;1.38;;;23.10;18.40;;;;;;5034985;28;20057;-72
2023/03/18 12:36:37;;;;;;;1.85;1.35;;;23.20;18.70;;;;;;5034531;28;20104;-73
2023/03/18 12:39:26;;;;;;;4.38;1.40;;;23.40;17.20;;;;;;5034684;28;20405;-74
2023/03/18 12:42:09;;;;;;;2.90;1.30;;;24.10;16.80;;;;;;5034744;28;20022;-72
2023/03/18 12:44:58;;;;;;;4.53;1.73;;;24.40;16.40;;;;;;5034507;28;20501;-72
2023/03/18 12:47:45;;;;;;;4.53;1.63;;;24.40;16.60;;;;;;5034657;28;20075;-73
2023/03/18 12:50:19;;;;;;;3.58;1.73;;;24.60;16.40;;;;;;5034206;28;20053;-74
2023/03/18 12:52:55;;;;;;;2.88;1.52;;;23.90;17.60;;;;;;5034518;28;20018;-75
2023/03/18 12:55:22;;;;;;;3.53;1.52;;;24.10;17.60;;;;;;5034281;28;20087;-73
2023/03/18 12:57:53;;;;;;;2.05;1.05;;;24.30;17.90;;;;;;5034190;28;20017;-73
2023/03/18 13:00:22;;;;;;;1.35;0.98;;;24.80;17.30;;;;;;5034366;28;20035;-73
2023/03/18 13:03:37;;;;;;;2.28;1.33;;;25.10;16.30;;;;;;5034275;28;20036;-74